sensor_id;sensor_type;location;lat;lon;timestamp;temperature;humidity
7472;DHT22;3777;48.722;8.110;2023-05-16T00:01:34;15.60;99.90
7472;DHT22;3777;48.722;8.110;2023-05-16T00:04:02;15.60;99.90
7472;DHT22;3777;48.722;8.110;2023-05-16T00:06:29;15.60;99.90
7472;DHT22;3777;48.722;8.110;2023-05-16T00:08:56;15.50;99.90
7472;DHT22;3777;48.722;8.110;2023-05-16T00:11:23;15.50;99.90
7472;DHT22;3777;48.722;8.110;2023-05-16T00:13:50;15.50;99.90
7472;DHT22;3777;48.722;8.110;2023-05-16T00:16:17;15.50;99.90
7472;DHT22;3777;48.722;8.110;2023-05-16T00:18:47;15.50;99.90
7472;DHT22;3777;48.722;8.110;2023-05-16T00:21:14;15.40;99.90
7472;DHT22;3777;48.722;8.110;2023-05-16T00:23:41;15.40;99.90
7472;DHT22;3777;48.722;8.110;2023-05-16T00:26:08;15.40;99.90
7472;DHT22;3777;48.722;8.110;2023-05-16T00:28:35;15.40;99.90
7472;DHT22;3777;48.722;8.110;2023-05-16T00:31:03;15.40;99.90
7472;DHT22;3777;48.722;8.110;2023-05-16T00:33:30;15.40;99.90
7472;DHT22;3777;48.722;8.110;2023-05-16T00:35:58;15.40;99.90
7472;DHT22;3777;48.722;8.110;2023-05-16T00:38:25;15.40;99.90
7472;DHT22;3777;48.722;8.110;2023-05-16T00:40:52;15.30;99.90
7472;DHT22;3777;48.722;8.110;2023-05-16T00:43:19;15.30;99.90
7472;DHT22;3777;48.722;8.110;2023-05-16T00:45:46;15.30;99.90
7472;DHT22;3777;48.722;8.110;2023-05-16T00:48:14;15.30;99.90
7472;DHT22;3777;48.722;8.110;2023-05-16T00:50:41;15.30;99.90
7472;DHT22;3777;48.722;8.110;2023-05-16T00:53:10;15.30;99.90
7472;DHT22;3777;48.722;8.110;2023-05-16T00:55:37;15.30;99.90
7472;DHT22;3777;48.722;8.110;2023-05-16T00:58:04;15.30;99.90
7472;DHT22;3777;48.722;8.110;2023-05-16T01:00:32;15.30;99.90
7472;DHT22;3777;48.722;8.110;2023-05-16T01:03:00;15.30;99.90
7472;DHT22;3777;48.722;8.110;2023-05-16T01:05:27;15.30;99.90
7472;DHT22;3777;48.722;8.110;2023-05-16T01:07:55;15.30;99.90
7472;DHT22;3777;48.722;8.110;2023-05-16T01:10:23;15.30;99.90
7472;DHT22;3777;48.722;8.110;2023-05-16T01:13:00;15.30;99.90
7472;DHT22;3777;48.722;8.110;2023-05-16T01:15:38;15.30;99.90
7472;DHT22;3777;48.722;8.110;2023-05-16T01:18:15;15.30;99.90
7472;DHT22;3777;48.722;8.110;2023-05-16T01:20:55;15.30;99.90
7472;DHT22;3777;48.722;8.110;2023-05-16T01:23:40;15.30;99.90
7472;DHT22;3777;48.722;8.110;2023-05-16T01:26:18;15.10;99.90
7472;DHT22;3777;48.722;8.110;2023-05-16T01:28:48;15.00;99.90
7472;DHT22;3777;48.722;8.110;2023-05-16T01:31:16;15.00;99.90
7472;DHT22;3777;48.722;8.110;2023-05-16T01:33:43;15.10;99.90
7472;DHT22;3777;48.722;8.110;2023-05-16T01:36:16;15.10;99.90
7472;DHT22;3777;48.722;8.110;2023-05-16T01:39:00;15.10;99.90
7472;DHT22;3777;48.722;8.110;2023-05-16T01:41:35;15.10;99.90
7472;DHT22;3777;48.722;8.110;2023-05-16T01:44:09;15.10;99.90
7472;DHT22;3777;48.722;8.110;2023-05-16T01:46:39;15.10;99.90
7472;DHT22;3777;48.722;8.110;2023-05-16T01:49:14;15.10;99.90
7472;DHT22;3777;48.722;8.110;2023-05-16T01:51:44;15.10;99.90
7472;DHT22;3777;48.722;8.110;2023-05-16T01:54:17;15.10;99.90
7472;DHT22;3777;48.722;8.110;2023-05-16T01:56:49;15.10;99.90
7472;DHT22;3777;48.722;8.110;2023-05-16T01:59:18;15.00;99.90
7472;DHT22;3777;48.722;8.110;2023-05-16T02:01:45;15.00;99.90
7472;DHT22;3777;48.722;8.110;2023-05-16T02:04:12;15.00;99.90
7472;DHT22;3777;48.722;8.110;2023-05-16T02:06:40;15.00;99.90
7472;DHT22;3777;48.722;8.110;2023-05-16T02:09:07;15.00;99.90
7472;DHT22;3777;48.722;8.110;2023-05-16T02:11:34;14.90;99.90
7472;DHT22;3777;48.722;8.110;2023-05-16T02:14:02;14.90;99.90
7472;DHT22;3777;48.722;8.110;2023-05-16T02:16:29;14.90;99.90
7472;DHT22;3777;48.722;8.110;2023-05-16T02:18:57;14.90;99.90
7472;DHT22;3777;48.722;8.110;2023-05-16T02:21:23;14.90;99.90
7472;DHT22;3777;48.722;8.110;2023-05-16T02:23:50;14.80;99.90
7472;DHT22;3777;48.722;8.110;2023-05-16T02:26:17;14.90;99.90
7472;DHT22;3777;48.722;8.110;2023-05-16T02:28:45;14.90;99.90
7472;DHT22;3777;48.722;8.110;2023-05-16T02:31:24;14.90;99.90
7472;DHT22;3777;48.722;8.110;2023-05-16T02:33:51;14.90;99.90
7472;DHT22;3777;48.722;8.110;2023-05-16T02:36:18;14.90;99.90
7472;DHT22;3777;48.722;8.110;2023-05-16T02:38:45;14.90;99.90
7472;DHT22;3777;48.722;8.110;2023-05-16T02:41:12;14.90;99.90
7472;DHT22;3777;48.722;8.110;2023-05-16T02:43:39;15.00;99.90
7472;DHT22;3777;48.722;8.110;2023-05-16T02:46:24;14.90;99.90
7472;DHT22;3777;48.722;8.110;2023-05-16T02:48:52;14.90;99.90
7472;DHT22;3777;48.722;8.110;2023-05-16T02:51:20;14.90;99.90
7472;DHT22;3777;48.722;8.110;2023-05-16T02:53:47;14.90;99.90
7472;DHT22;3777;48.722;8.110;2023-05-16T02:56:14;15.00;99.90
7472;DHT22;3777;48.722;8.110;2023-05-16T02:58:41;15.00;99.90
7472;DHT22;3777;48.722;8.110;2023-05-16T03:01:08;15.00;99.90
7472;DHT22;3777;48.722;8.110;2023-05-16T03:03:37;15.00;99.90
7472;DHT22;3777;48.722;8.110;2023-05-16T03:06:04;15.00;99.90
7472;DHT22;3777;48.722;8.110;2023-05-16T03:08:31;15.00;99.90
7472;DHT22;3777;48.722;8.110;2023-05-16T03:10:58;15.10;99.90
7472;DHT22;3777;48.722;8.110;2023-05-16T03:13:25;15.10;99.90
7472;DHT22;3777;48.722;8.110;2023-05-16T03:15:52;15.10;99.90
7472;DHT22;3777;48.722;8.110;2023-05-16T03:18:19;15.10;99.90
7472;DHT22;3777;48.722;8.110;2023-05-16T03:20:48;15.10;99.90
7472;DHT22;3777;48.722;8.110;2023-05-16T03:23:17;15.10;99.90
7472;DHT22;3777;48.722;8.110;2023-05-16T03:25:44;15.10;99.90
7472;DHT22;3777;48.722;8.110;2023-05-16T03:28:12;15.10;99.90
7472;DHT22;3777;48.722;8.110;2023-05-16T03:30:39;15.20;99.90
7472;DHT22;3777;48.722;8.110;2023-05-16T03:33:06;15.20;99.90
7472;DHT22;3777;48.722;8.110;2023-05-16T03:35:34;15.20;99.90
7472;DHT22;3777;48.722;8.110;2023-05-16T03:38:02;15.20;99.90
7472;DHT22;3777;48.722;8.110;2023-05-16T03:40:29;15.20;99.90
7472;DHT22;3777;48.722;8.110;2023-05-16T03:42:56;15.20;99.90
7472;DHT22;3777;48.722;8.110;2023-05-16T03:45:23;15.20;99.90
7472;DHT22;3777;48.722;8.110;2023-05-16T03:47:50;15.20;99.90
7472;DHT22;3777;48.722;8.110;2023-05-16T03:50:17;15.20;99.90
7472;DHT22;3777;48.722;8.110;2023-05-16T03:52:44;15.20;99.90
7472;DHT22;3777;48.722;8.110;2023-05-16T03:55:12;15.10;99.90
7472;DHT22;3777;48.722;8.110;2023-05-16T03:57:40;15.10;99.90
7472;DHT22;3777;48.722;8.110;2023-05-16T04:00:08;15.10;99.90
7472;DHT22;3777;48.722;8.110;2023-05-16T04:02:35;15.00;99.90
7472;DHT22;3777;48.722;8.110;2023-05-16T04:05:03;15.00;99.90
7472;DHT22;3777;48.722;8.110;2023-05-16T04:07:30;14.90;99.90
7472;DHT22;3777;48.722;8.110;2023-05-16T04:09:57;14.90;99.90
7472;DHT22;3777;48.722;8.110;2023-05-16T04:12:28;14.80;99.90
7472;DHT22;3777;48.722;8.110;2023-05-16T04:14:55;14.80;99.90
7472;DHT22;3777;48.722;8.110;2023-05-16T04:17:22;14.80;99.90
7472;DHT22;3777;48.722;8.110;2023-05-16T04:19:49;14.80;99.90
7472;DHT22;3777;48.722;8.110;2023-05-16T04:22:16;14.80;99.90
7472;DHT22;3777;48.722;8.110;2023-05-16T04:24:43;14.80;99.90
7472;DHT22;3777;48.722;8.110;2023-05-16T04:27:10;14.80;99.90
7472;DHT22;3777;48.722;8.110;2023-05-16T04:29:38;14.80;99.90
7472;DHT22;3777;48.722;8.110;2023-05-16T04:32:06;14.70;99.90
7472;DHT22;3777;48.722;8.110;2023-05-16T04:34:33;14.70;99.90
7472;DHT22;3777;48.722;8.110;2023-05-16T04:37:02;14.70;99.90
7472;DHT22;3777;48.722;8.110;2023-05-16T04:39:32;14.70;99.90
7472;DHT22;3777;48.722;8.110;2023-05-16T04:41:59;14.70;99.90
7472;DHT22;3777;48.722;8.110;2023-05-16T04:44:26;14.60;99.90
7472;DHT22;3777;48.722;8.110;2023-05-16T04:46:54;14.60;99.90
7472;DHT22;3777;48.722;8.110;2023-05-16T04:49:22;14.50;99.90
7472;DHT22;3777;48.722;8.110;2023-05-16T04:51:48;14.40;99.90
7472;DHT22;3777;48.722;8.110;2023-05-16T04:54:15;14.40;99.90
7472;DHT22;3777;48.722;8.110;2023-05-16T04:56:42;14.30;99.90
7472;DHT22;3777;48.722;8.110;2023-05-16T04:59:09;14.30;99.90
7472;DHT22;3777;48.722;8.110;2023-05-16T05:01:36;14.30;99.90
7472;DHT22;3777;48.722;8.110;2023-05-16T05:04:05;14.40;99.90
7472;DHT22;3777;48.722;8.110;2023-05-16T05:06:32;14.40;99.90
7472;DHT22;3777;48.722;8.110;2023-05-16T05:08:59;14.40;99.90
7472;DHT22;3777;48.722;8.110;2023-05-16T05:11:26;14.40;99.90
7472;DHT22;3777;48.722;8.110;2023-05-16T05:13:53;14.40;99.90
7472;DHT22;3777;48.722;8.110;2023-05-16T05:16:20;14.40;99.90
7472;DHT22;3777;48.722;8.110;2023-05-16T05:18:47;14.30;99.90
7472;DHT22;3777;48.722;8.110;2023-05-16T05:21:15;14.30;99.90
7472;DHT22;3777;48.722;8.110;2023-05-16T05:23:43;14.30;99.90
7472;DHT22;3777;48.722;8.110;2023-05-16T05:26:10;14.30;99.90
7472;DHT22;3777;48.722;8.110;2023-05-16T05:28:37;14.30;99.90
7472;DHT22;3777;48.722;8.110;2023-05-16T05:31:04;14.30;99.90
7472;DHT22;3777;48.722;8.110;2023-05-16T05:33:32;14.20;99.90
7472;DHT22;3777;48.722;8.110;2023-05-16T05:35:59;14.20;99.90
7472;DHT22;3777;48.722;8.110;2023-05-16T05:38:28;14.20;99.90
7472;DHT22;3777;48.722;8.110;2023-05-16T05:40:54;14.20;99.90
7472;DHT22;3777;48.722;8.110;2023-05-16T05:43:22;14.20;99.90
7472;DHT22;3777;48.722;8.110;2023-05-16T05:45:48;14.20;99.90
7472;DHT22;3777;48.722;8.110;2023-05-16T05:48:15;14.20;99.90
7472;DHT22;3777;48.722;8.110;2023-05-16T05:50:42;14.10;99.90
7472;DHT22;3777;48.722;8.110;2023-05-16T05:53:09;14.10;99.90
7472;DHT22;3777;48.722;8.110;2023-05-16T05:55:38;14.10;99.90
7472;DHT22;3777;48.722;8.110;2023-05-16T05:58:06;14.10;99.90
7472;DHT22;3777;48.722;8.110;2023-05-16T06:00:33;14.10;99.90
7472;DHT22;3777;48.722;8.110;2023-05-16T06:03:00;14.10;99.90
7472;DHT22;3777;48.722;8.110;2023-05-16T06:05:27;14.10;99.90
7472;DHT22;3777;48.722;8.110;2023-05-16T06:07:54;14.00;99.90
7472;DHT22;3777;48.722;8.110;2023-05-16T06:10:21;14.00;99.90
7472;DHT22;3777;48.722;8.110;2023-05-16T06:12:49;14.00;99.90
7472;DHT22;3777;48.722;8.110;2023-05-16T06:15:16;13.90;99.90
7472;DHT22;3777;48.722;8.110;2023-05-16T06:17:43;14.00;99.90
7472;DHT22;3777;48.722;8.110;2023-05-16T06:20:11;14.00;99.90
7472;DHT22;3777;48.722;8.110;2023-05-16T06:22:38;14.00;99.90
7472;DHT22;3777;48.722;8.110;2023-05-16T06:25:05;14.00;99.90
7472;DHT22;3777;48.722;8.110;2023-05-16T06:27:32;14.10;99.90
7472;DHT22;3777;48.722;8.110;2023-05-16T06:30:01;14.10;99.90
7472;DHT22;3777;48.722;8.110;2023-05-16T06:32:28;14.20;99.90
7472;DHT22;3777;48.722;8.110;2023-05-16T06:34:55;14.20;99.90
7472;DHT22;3777;48.722;8.110;2023-05-16T06:37:22;14.20;99.90
7472;DHT22;3777;48.722;8.110;2023-05-16T06:39:50;14.20;99.90
7472;DHT22;3777;48.722;8.110;2023-05-16T06:42:17;14.30;99.90
7472;DHT22;3777;48.722;8.110;2023-05-16T06:44:45;14.30;99.90
7472;DHT22;3777;48.722;8.110;2023-05-16T06:47:15;14.30;99.90
7472;DHT22;3777;48.722;8.110;2023-05-16T06:49:42;14.30;99.90
7472;DHT22;3777;48.722;8.110;2023-05-16T06:52:09;14.30;99.90
7472;DHT22;3777;48.722;8.110;2023-05-16T06:54:36;14.30;99.90
7472;DHT22;3777;48.722;8.110;2023-05-16T06:57:03;14.30;99.90
7472;DHT22;3777;48.722;8.110;2023-05-16T06:59:31;14.30;99.90
7472;DHT22;3777;48.722;8.110;2023-05-16T07:01:58;14.30;99.90
7472;DHT22;3777;48.722;8.110;2023-05-16T07:04:27;14.30;99.90
7472;DHT22;3777;48.722;8.110;2023-05-16T07:06:54;14.30;99.90
7472;DHT22;3777;48.722;8.110;2023-05-16T07:09:21;14.30;99.90
7472;DHT22;3777;48.722;8.110;2023-05-16T07:11:48;14.30;99.90
7472;DHT22;3777;48.722;8.110;2023-05-16T07:14:14;14.30;99.90
7472;DHT22;3777;48.722;8.110;2023-05-16T07:16:41;14.30;99.90
7472;DHT22;3777;48.722;8.110;2023-05-16T07:19:08;14.20;99.90
7472;DHT22;3777;48.722;8.110;2023-05-16T07:21:37;14.30;99.90
7472;DHT22;3777;48.722;8.110;2023-05-16T07:24:05;14.30;99.90
7472;DHT22;3777;48.722;8.110;2023-05-16T07:26:32;14.20;99.90
7472;DHT22;3777;48.722;8.110;2023-05-16T07:28:59;14.30;99.90
7472;DHT22;3777;48.722;8.110;2023-05-16T07:31:27;14.30;99.90
7472;DHT22;3777;48.722;8.110;2023-05-16T07:33:54;14.30;99.90
7472;DHT22;3777;48.722;8.110;2023-05-16T07:36:21;14.30;99.90
7472;DHT22;3777;48.722;8.110;2023-05-16T07:38:49;14.20;99.90
7472;DHT22;3777;48.722;8.110;2023-05-16T07:41:16;14.20;99.90
7472;DHT22;3777;48.722;8.110;2023-05-16T07:43:43;14.20;99.90
7472;DHT22;3777;48.722;8.110;2023-05-16T07:46:10;14.20;99.90
7472;DHT22;3777;48.722;8.110;2023-05-16T07:48:39;14.30;99.90
7472;DHT22;3777;48.722;8.110;2023-05-16T07:51:05;14.30;99.90
7472;DHT22;3777;48.722;8.110;2023-05-16T07:53:32;14.40;99.90
7472;DHT22;3777;48.722;8.110;2023-05-16T07:56:01;14.40;99.90
7472;DHT22;3777;48.722;8.110;2023-05-16T07:58:28;14.40;99.90
7472;DHT22;3777;48.722;8.110;2023-05-16T08:00:55;14.40;99.90
7472;DHT22;3777;48.722;8.110;2023-05-16T08:03:22;14.40;99.90
7472;DHT22;3777;48.722;8.110;2023-05-16T08:05:49;14.40;99.90
7472;DHT22;3777;48.722;8.110;2023-05-16T08:08:16;14.50;99.90
7472;DHT22;3777;48.722;8.110;2023-05-16T08:10:43;14.50;99.90
7472;DHT22;3777;48.722;8.110;2023-05-16T08:13:12;14.50;99.90
7472;DHT22;3777;48.722;8.110;2023-05-16T08:15:39;14.50;99.90
7472;DHT22;3777;48.722;8.110;2023-05-16T08:18:12;14.60;99.90
7472;DHT22;3777;48.722;8.110;2023-05-16T08:20:39;14.70;99.90
7472;DHT22;3777;48.722;8.110;2023-05-16T08:23:07;14.80;99.90
7472;DHT22;3777;48.722;8.110;2023-05-16T08:25:34;14.90;99.90
7472;DHT22;3777;48.722;8.110;2023-05-16T08:28:01;15.00;99.90
7472;DHT22;3777;48.722;8.110;2023-05-16T08:30:29;15.10;99.90
7472;DHT22;3777;48.722;8.110;2023-05-16T08:32:56;15.10;99.90
7472;DHT22;3777;48.722;8.110;2023-05-16T08:35:23;15.00;99.90
7472;DHT22;3777;48.722;8.110;2023-05-16T08:37:50;14.90;99.90
7472;DHT22;3777;48.722;8.110;2023-05-16T08:40:17;14.90;99.90
7472;DHT22;3777;48.722;8.110;2023-05-16T08:42:45;14.80;99.90
7472;DHT22;3777;48.722;8.110;2023-05-16T08:45:12;14.80;99.90
7472;DHT22;3777;48.722;8.110;2023-05-16T08:47:41;14.70;99.90
7472;DHT22;3777;48.722;8.110;2023-05-16T08:50:10;14.60;99.90
7472;DHT22;3777;48.722;8.110;2023-05-16T08:52:37;14.60;99.90
7472;DHT22;3777;48.722;8.110;2023-05-16T08:55:06;14.60;99.90
7472;DHT22;3777;48.722;8.110;2023-05-16T08:57:36;14.50;99.90
7472;DHT22;3777;48.722;8.110;2023-05-16T09:00:05;14.50;99.90
7472;DHT22;3777;48.722;8.110;2023-05-16T09:02:37;14.50;99.90
7472;DHT22;3777;48.722;8.110;2023-05-16T09:05:08;14.40;99.90
7472;DHT22;3777;48.722;8.110;2023-05-16T09:07:36;14.50;99.90
7472;DHT22;3777;48.722;8.110;2023-05-16T09:10:04;14.40;99.90
7472;DHT22;3777;48.722;8.110;2023-05-16T09:12:32;14.40;99.90
7472;DHT22;3777;48.722;8.110;2023-05-16T09:14:59;14.40;99.90
7472;DHT22;3777;48.722;8.110;2023-05-16T09:17:34;14.40;99.90
7472;DHT22;3777;48.722;8.110;2023-05-16T09:20:10;14.50;99.90
7472;DHT22;3777;48.722;8.110;2023-05-16T09:22:49;14.50;99.90
7472;DHT22;3777;48.722;8.110;2023-05-16T09:25:18;14.60;99.90
7472;DHT22;3777;48.722;8.110;2023-05-16T09:27:45;14.60;99.90
7472;DHT22;3777;48.722;8.110;2023-05-16T09:30:13;14.60;99.90
7472;DHT22;3777;48.722;8.110;2023-05-16T09:32:43;14.60;99.90
7472;DHT22;3777;48.722;8.110;2023-05-16T09:35:14;14.60;99.90
7472;DHT22;3777;48.722;8.110;2023-05-16T09:37:44;14.50;99.90
7472;DHT22;3777;48.722;8.110;2023-05-16T09:40:12;14.50;99.90
7472;DHT22;3777;48.722;8.110;2023-05-16T09:42:39;14.40;99.90
7472;DHT22;3777;48.722;8.110;2023-05-16T09:45:07;14.40;99.90
7472;DHT22;3777;48.722;8.110;2023-05-16T09:47:37;14.50;99.90
7472;DHT22;3777;48.722;8.110;2023-05-16T09:50:13;14.50;99.90
7472;DHT22;3777;48.722;8.110;2023-05-16T09:52:40;14.50;99.90
7472;DHT22;3777;48.722;8.110;2023-05-16T09:55:08;14.50;99.90
7472;DHT22;3777;48.722;8.110;2023-05-16T09:57:36;14.50;99.90
7472;DHT22;3777;48.722;8.110;2023-05-16T10:00:06;14.50;99.90
7472;DHT22;3777;48.722;8.110;2023-05-16T10:02:36;14.60;99.90
7472;DHT22;3777;48.722;8.110;2023-05-16T10:05:04;14.60;99.90
7472;DHT22;3777;48.722;8.110;2023-05-16T10:07:33;14.60;99.90
7472;DHT22;3777;48.722;8.110;2023-05-16T10:10:04;14.60;99.90
7472;DHT22;3777;48.722;8.110;2023-05-16T10:12:32;14.50;99.90
7472;DHT22;3777;48.722;8.110;2023-05-16T10:15:00;14.50;99.90
7472;DHT22;3777;48.722;8.110;2023-05-16T10:17:31;14.50;99.90
7472;DHT22;3777;48.722;8.110;2023-05-16T10:20:00;14.50;99.90
7472;DHT22;3777;48.722;8.110;2023-05-16T10:22:33;14.50;99.90
7472;DHT22;3777;48.722;8.110;2023-05-16T10:25:07;14.50;99.90
7472;DHT22;3777;48.722;8.110;2023-05-16T10:27:37;14.50;99.90
7472;DHT22;3777;48.722;8.110;2023-05-16T10:30:06;14.50;99.90
7472;DHT22;3777;48.722;8.110;2023-05-16T10:32:35;14.40;99.90
7472;DHT22;3777;48.722;8.110;2023-05-16T10:35:02;14.40;99.90
7472;DHT22;3777;48.722;8.110;2023-05-16T10:37:30;14.40;99.90
7472;DHT22;3777;48.722;8.110;2023-05-16T10:40:00;14.30;99.90
7472;DHT22;3777;48.722;8.110;2023-05-16T10:42:31;14.40;99.90
7472;DHT22;3777;48.722;8.110;2023-05-16T10:45:08;14.40;99.90
7472;DHT22;3777;48.722;8.110;2023-05-16T10:47:50;14.30;99.90
7472;DHT22;3777;48.722;8.110;2023-05-16T10:50:30;14.30;99.90
7472;DHT22;3777;48.722;8.110;2023-05-16T10:53:17;14.40;99.90
7472;DHT22;3777;48.722;8.110;2023-05-16T10:56:06;14.40;99.90
7472;DHT22;3777;48.722;8.110;2023-05-16T10:58:45;14.60;99.90
7472;DHT22;3777;48.722;8.110;2023-05-16T11:01:16;14.90;99.90
7472;DHT22;3777;48.722;8.110;2023-05-16T11:04:06;15.30;99.90
7472;DHT22;3777;48.722;8.110;2023-05-16T11:06:42;15.90;99.90
7472;DHT22;3777;48.722;8.110;2023-05-16T11:09:21;16.40;99.90
7472;DHT22;3777;48.722;8.110;2023-05-16T11:11:58;16.50;99.90
7472;DHT22;3777;48.722;8.110;2023-05-16T11:14:26;16.60;99.90
7472;DHT22;3777;48.722;8.110;2023-05-16T11:17:00;16.50;99.90
7472;DHT22;3777;48.722;8.110;2023-05-16T11:19:29;16.20;99.90
7472;DHT22;3777;48.722;8.110;2023-05-16T11:22:23;16.10;99.90
7472;DHT22;3777;48.722;8.110;2023-05-16T11:24:56;16.00;99.90
7472;DHT22;3777;48.722;8.110;2023-05-16T11:27:27;15.70;99.90
7472;DHT22;3777;48.722;8.110;2023-05-16T11:29:57;15.70;99.90
7472;DHT22;3777;48.722;8.110;2023-05-16T11:32:25;15.60;99.90
7472;DHT22;3777;48.722;8.110;2023-05-16T11:34:53;15.40;99.90
7472;DHT22;3777;48.722;8.110;2023-05-16T11:37:20;15.20;99.90
7472;DHT22;3777;48.722;8.110;2023-05-16T11:39:47;15.00;99.90
7472;DHT22;3777;48.722;8.110;2023-05-16T11:42:14;14.90;99.90
7472;DHT22;3777;48.722;8.110;2023-05-16T11:44:44;14.80;99.90
7472;DHT22;3777;48.722;8.110;2023-05-16T11:47:11;14.70;99.90
7472;DHT22;3777;48.722;8.110;2023-05-16T11:49:38;14.60;99.90
7472;DHT22;3777;48.722;8.110;2023-05-16T11:52:07;14.60;99.90
7472;DHT22;3777;48.722;8.110;2023-05-16T11:54:35;14.60;99.90
7472;DHT22;3777;48.722;8.110;2023-05-16T11:57:02;14.60;99.90
7472;DHT22;3777;48.722;8.110;2023-05-16T11:59:29;14.60;99.90
7472;DHT22;3777;48.722;8.110;2023-05-16T12:02:02;14.50;99.90
7472;DHT22;3777;48.722;8.110;2023-05-16T12:04:31;14.40;99.90
7472;DHT22;3777;48.722;8.110;2023-05-16T12:06:59;14.50;99.90
7472;DHT22;3777;48.722;8.110;2023-05-16T12:09:27;14.40;99.90
7472;DHT22;3777;48.722;8.110;2023-05-16T12:11:54;14.50;99.90
7472;DHT22;3777;48.722;8.110;2023-05-16T12:14:21;14.60;99.90
7472;DHT22;3777;48.722;8.110;2023-05-16T12:16:50;14.60;99.90
7472;DHT22;3777;48.722;8.110;2023-05-16T12:19:19;14.80;99.90
7472;DHT22;3777;48.722;8.110;2023-05-16T12:21:46;14.80;99.90
7472;DHT22;3777;48.722;8.110;2023-05-16T12:24:13;14.70;99.90
7472;DHT22;3777;48.722;8.110;2023-05-16T12:26:42;14.70;99.90
7472;DHT22;3777;48.722;8.110;2023-05-16T12:29:09;14.80;99.90
7472;DHT22;3777;48.722;8.110;2023-05-16T12:31:38;14.60;99.90
7472;DHT22;3777;48.722;8.110;2023-05-16T12:34:14;14.60;99.90
7472;DHT22;3777;48.722;8.110;2023-05-16T12:36:43;14.50;99.90
7472;DHT22;3777;48.722;8.110;2023-05-16T12:39:11;14.40;99.90
7472;DHT22;3777;48.722;8.110;2023-05-16T12:41:40;14.30;99.90
7472;DHT22;3777;48.722;8.110;2023-05-16T12:44:10;14.20;99.90
7472;DHT22;3777;48.722;8.110;2023-05-16T12:46:40;14.20;99.90
7472;DHT22;3777;48.722;8.110;2023-05-16T12:49:07;14.30;99.90
7472;DHT22;3777;48.722;8.110;2023-05-16T12:51:34;14.30;99.90
7472;DHT22;3777;48.722;8.110;2023-05-16T12:54:09;14.30;99.90
7472;DHT22;3777;48.722;8.110;2023-05-16T12:56:37;14.20;99.90
7472;DHT22;3777;48.722;8.110;2023-05-16T12:59:04;14.20;99.90
7472;DHT22;3777;48.722;8.110;2023-05-16T13:01:31;14.30;99.90
7472;DHT22;3777;48.722;8.110;2023-05-16T13:03:59;14.20;99.90
7472;DHT22;3777;48.722;8.110;2023-05-16T13:06:27;14.10;99.90
7472;DHT22;3777;48.722;8.110;2023-05-16T13:08:54;14.20;99.90
7472;DHT22;3777;48.722;8.110;2023-05-16T13:11:23;14.20;99.90
7472;DHT22;3777;48.722;8.110;2023-05-16T13:13:50;14.20;99.90
7472;DHT22;3777;48.722;8.110;2023-05-16T13:16:18;14.10;99.90
7472;DHT22;3777;48.722;8.110;2023-05-16T13:18:44;14.20;99.90
7472;DHT22;3777;48.722;8.110;2023-05-16T13:21:11;14.30;99.90
7472;DHT22;3777;48.722;8.110;2023-05-16T13:23:38;14.40;99.90
7472;DHT22;3777;48.722;8.110;2023-05-16T13:26:05;14.50;99.90
7472;DHT22;3777;48.722;8.110;2023-05-16T13:28:34;14.60;99.90
7472;DHT22;3777;48.722;8.110;2023-05-16T13:31:01;14.50;99.90
7472;DHT22;3777;48.722;8.110;2023-05-16T13:33:28;14.60;99.90
7472;DHT22;3777;48.722;8.110;2023-05-16T13:35:55;14.60;99.90
7472;DHT22;3777;48.722;8.110;2023-05-16T13:38:22;14.60;99.90
7472;DHT22;3777;48.722;8.110;2023-05-16T13:40:49;14.50;99.90
7472;DHT22;3777;48.722;8.110;2023-05-16T13:43:16;14.50;99.90
7472;DHT22;3777;48.722;8.110;2023-05-16T13:45:44;14.50;99.90
7472;DHT22;3777;48.722;8.110;2023-05-16T13:48:11;14.50;99.90
7472;DHT22;3777;48.722;8.110;2023-05-16T13:50:38;14.60;99.90
7472;DHT22;3777;48.722;8.110;2023-05-16T13:53:05;14.60;99.90
7472;DHT22;3777;48.722;8.110;2023-05-16T13:55:32;14.70;99.90
7472;DHT22;3777;48.722;8.110;2023-05-16T13:57:59;14.80;99.90
7472;DHT22;3777;48.722;8.110;2023-05-16T14:00:27;14.90;99.90
7472;DHT22;3777;48.722;8.110;2023-05-16T14:02:55;14.90;99.90
7472;DHT22;3777;48.722;8.110;2023-05-16T14:05:22;15.00;99.90
7472;DHT22;3777;48.722;8.110;2023-05-16T14:07:49;15.00;99.90
7472;DHT22;3777;48.722;8.110;2023-05-16T14:10:16;15.10;99.90
7472;DHT22;3777;48.722;8.110;2023-05-16T14:12:43;15.20;99.90
7472;DHT22;3777;48.722;8.110;2023-05-16T14:15:10;15.30;99.90
7472;DHT22;3777;48.722;8.110;2023-05-16T14:17:37;15.40;99.90
7472;DHT22;3777;48.722;8.110;2023-05-16T14:20:06;15.40;99.90
7472;DHT22;3777;48.722;8.110;2023-05-16T14:22:35;15.40;99.90
7472;DHT22;3777;48.722;8.110;2023-05-16T14:25:03;15.40;99.90
7472;DHT22;3777;48.722;8.110;2023-05-16T14:27:30;15.60;99.90
7472;DHT22;3777;48.722;8.110;2023-05-16T14:29:57;15.50;99.90
7472;DHT22;3777;48.722;8.110;2023-05-16T14:32:24;15.20;99.90
7472;DHT22;3777;48.722;8.110;2023-05-16T14:34:51;15.20;99.90
7472;DHT22;3777;48.722;8.110;2023-05-16T14:37:20;15.30;99.90
7472;DHT22;3777;48.722;8.110;2023-05-16T14:39:47;15.40;99.90
7472;DHT22;3777;48.722;8.110;2023-05-16T14:42:15;15.60;99.90
7472;DHT22;3777;48.722;8.110;2023-05-16T14:44:42;15.80;99.90
7472;DHT22;3777;48.722;8.110;2023-05-16T14:47:09;15.80;99.90
7472;DHT22;3777;48.722;8.110;2023-05-16T14:49:36;15.70;99.90
7472;DHT22;3777;48.722;8.110;2023-05-16T14:52:04;15.50;99.90
7472;DHT22;3777;48.722;8.110;2023-05-16T14:54:32;15.40;99.90
7472;DHT22;3777;48.722;8.110;2023-05-16T14:56:59;15.20;99.90
7472;DHT22;3777;48.722;8.110;2023-05-16T14:59:28;15.10;99.90
7472;DHT22;3777;48.722;8.110;2023-05-16T15:01:56;15.10;99.90
7472;DHT22;3777;48.722;8.110;2023-05-16T15:04:23;15.10;99.90
7472;DHT22;3777;48.722;8.110;2023-05-16T15:06:49;15.00;99.90
7472;DHT22;3777;48.722;8.110;2023-05-16T15:09:16;14.90;99.90
7472;DHT22;3777;48.722;8.110;2023-05-16T15:11:45;14.90;99.90
7472;DHT22;3777;48.722;8.110;2023-05-16T15:14:12;14.80;99.90
7472;DHT22;3777;48.722;8.110;2023-05-16T15:16:39;14.70;99.90
7472;DHT22;3777;48.722;8.110;2023-05-16T15:19:06;14.70;99.90
7472;DHT22;3777;48.722;8.110;2023-05-16T15:21:33;14.80;99.90
7472;DHT22;3777;48.722;8.110;2023-05-16T15:24:00;15.00;99.90
7472;DHT22;3777;48.722;8.110;2023-05-16T15:26:27;15.00;99.90
7472;DHT22;3777;48.722;8.110;2023-05-16T15:28:55;15.10;99.90
7472;DHT22;3777;48.722;8.110;2023-05-16T15:31:22;15.20;99.90
7472;DHT22;3777;48.722;8.110;2023-05-16T15:33:49;15.20;99.90
7472;DHT22;3777;48.722;8.110;2023-05-16T15:36:16;15.30;99.90
7472;DHT22;3777;48.722;8.110;2023-05-16T15:38:43;15.40;99.90
7472;DHT22;3777;48.722;8.110;2023-05-16T15:41:11;15.50;99.90
7472;DHT22;3777;48.722;8.110;2023-05-16T15:43:39;15.60;99.90
7472;DHT22;3777;48.722;8.110;2023-05-16T15:46:08;15.70;99.90
7472;DHT22;3777;48.722;8.110;2023-05-16T15:48:37;15.60;99.90
7472;DHT22;3777;48.722;8.110;2023-05-16T15:51:07;15.60;99.90
7472;DHT22;3777;48.722;8.110;2023-05-16T15:53:34;15.70;99.90
7472;DHT22;3777;48.722;8.110;2023-05-16T15:56:01;15.70;99.90
7472;DHT22;3777;48.722;8.110;2023-05-16T15:58:28;15.70;99.90
7472;DHT22;3777;48.722;8.110;2023-05-16T16:00:55;15.80;99.90
7472;DHT22;3777;48.722;8.110;2023-05-16T16:03:23;15.80;99.90
7472;DHT22;3777;48.722;8.110;2023-05-16T16:05:50;15.90;99.90
7472;DHT22;3777;48.722;8.110;2023-05-16T16:08:17;16.00;99.90
7472;DHT22;3777;48.722;8.110;2023-05-16T16:10:45;16.00;99.90